sensor_id;sensor_type;location;lat;lon;timestamp;P1;durP1;ratioP1;P2;durP2;ratioP2
32639;SDS011;19049;52.524;11.468;2024-03-22T00:00:32;11.13;;;7.10;;
32639;SDS011;19049;52.524;11.468;2024-03-22T00:02:57;11.47;;;7.23;;
32639;SDS011;19049;52.524;11.468;2024-03-22T00:05:23;11.67;;;7.30;;
32639;SDS011;19049;52.524;11.468;2024-03-22T00:07:49;14.73;;;7.50;;
32639;SDS011;19049;52.524;11.468;2024-03-22T00:10:14;12.83;;;7.30;;
32639;SDS011;19049;52.524;11.468;2024-03-22T00:12:40;12.83;;;7.20;;
32639;SDS011;19049;52.524;11.468;2024-03-22T00:15:05;10.80;;;6.50;;
32639;SDS011;19049;52.524;11.468;2024-03-22T00:17:31;10.03;;;6.40;;
32639;SDS011;19049;52.524;11.468;2024-03-22T00:19:58;12.70;;;6.70;;
32639;SDS011;19049;52.524;11.468;2024-03-22T00:22:24;10.23;;;6.77;;
32639;SDS011;19049;52.524;11.468;2024-03-22T00:24:49;11.30;;;7.10;;
32639;SDS011;19049;52.524;11.468;2024-03-22T00:27:14;12.27;;;7.83;;
32639;SDS011;19049;52.524;11.468;2024-03-22T00:29:40;12.77;;;7.40;;
32639;SDS011;19049;52.524;11.468;2024-03-22T00:32:06;12.87;;;7.37;;
32639;SDS011;19049;52.524;11.468;2024-03-22T00:34:32;11.23;;;7.30;;
32639;SDS011;19049;52.524;11.468;2024-03-22T00:36:59;14.70;;;8.13;;
32639;SDS011;19049;52.524;11.468;2024-03-22T00:39:24;14.33;;;8.30;;
32639;SDS011;19049;52.524;11.468;2024-03-22T00:41:50;12.90;;;7.60;;
32639;SDS011;19049;52.524;11.468;2024-03-22T00:44:15;12.47;;;8.20;;
32639;SDS011;19049;52.524;11.468;2024-03-22T00:46:41;13.37;;;7.47;;
32639;SDS011;19049;52.524;11.468;2024-03-22T00:49:06;14.13;;;8.57;;
32639;SDS011;19049;52.524;11.468;2024-03-22T00:51:32;13.13;;;8.13;;
32639;SDS011;19049;52.524;11.468;2024-03-22T00:53:57;12.57;;;7.60;;
32639;SDS011;19049;52.524;11.468;2024-03-22T00:56:23;11.33;;;7.57;;
32639;SDS011;19049;52.524;11.468;2024-03-22T00:58:48;15.10;;;8.67;;
32639;SDS011;19049;52.524;11.468;2024-03-22T01:01:14;15.57;;;7.77;;
32639;SDS011;19049;52.524;11.468;2024-03-22T01:03:39;13.03;;;8.50;;
32639;SDS011;19049;52.524;11.468;2024-03-22T01:06:05;13.07;;;8.47;;
32639;SDS011;19049;52.524;11.468;2024-03-22T01:08:30;13.70;;;9.07;;
32639;SDS011;19049;52.524;11.468;2024-03-22T01:10:56;15.03;;;9.13;;
32639;SDS011;19049;52.524;11.468;2024-03-22T01:13:21;13.33;;;8.97;;
32639;SDS011;19049;52.524;11.468;2024-03-22T01:15:47;15.07;;;9.50;;
32639;SDS011;19049;52.524;11.468;2024-03-22T01:18:12;14.97;;;9.93;;
32639;SDS011;19049;52.524;11.468;2024-03-22T01:20:38;16.97;;;10.03;;
32639;SDS011;19049;52.524;11.468;2024-03-22T01:23:04;14.17;;;9.27;;
32639;SDS011;19049;52.524;11.468;2024-03-22T01:25:29;14.80;;;8.90;;
32639;SDS011;19049;52.524;11.468;2024-03-22T01:27:55;15.67;;;10.13;;
32639;SDS011;19049;52.524;11.468;2024-03-22T01:30:21;15.13;;;9.03;;
32639;SDS011;19049;52.524;11.468;2024-03-22T01:32:47;15.63;;;9.77;;
32639;SDS011;19049;52.524;11.468;2024-03-22T01:35:12;16.93;;;9.63;;
32639;SDS011;19049;52.524;11.468;2024-03-22T01:37:38;16.50;;;10.33;;
32639;SDS011;19049;52.524;11.468;2024-03-22T01:40:04;16.03;;;9.73;;
32639;SDS011;19049;52.524;11.468;2024-03-22T01:42:30;15.53;;;9.50;;
32639;SDS011;19049;52.524;11.468;2024-03-22T01:44:56;16.00;;;10.07;;
32639;SDS011;19049;52.524;11.468;2024-03-22T01:47:21;18.27;;;10.57;;
32639;SDS011;19049;52.524;11.468;2024-03-22T01:49:47;16.27;;;10.80;;
32639;SDS011;19049;52.524;11.468;2024-03-22T01:52:15;13.13;;;9.70;;
32639;SDS011;19049;52.524;11.468;2024-03-22T01:54:41;15.20;;;9.90;;
32639;SDS011;19049;52.524;11.468;2024-03-22T01:57:07;15.77;;;10.00;;
32639;SDS011;19049;52.524;11.468;2024-03-22T01:59:33;16.50;;;10.60;;
32639;SDS011;19049;52.524;11.468;2024-03-22T02:01:59;15.40;;;10.57;;
32639;SDS011;19049;52.524;11.468;2024-03-22T02:04:24;18.50;;;10.87;;
32639;SDS011;19049;52.524;11.468;2024-03-22T02:06:50;18.47;;;12.03;;
32639;SDS011;19049;52.524;11.468;2024-03-22T02:09:15;14.97;;;10.83;;
32639;SDS011;19049;52.524;11.468;2024-03-22T02:11:41;18.70;;;12.27;;
32639;SDS011;19049;52.524;11.468;2024-03-22T02:14:07;19.67;;;11.90;;
32639;SDS011;19049;52.524;11.468;2024-03-22T02:16:33;16.00;;;10.80;;
32639;SDS011;19049;52.524;11.468;2024-03-22T02:18:58;19.93;;;11.77;;
32639;SDS011;19049;52.524;11.468;2024-03-22T02:21:24;17.50;;;12.40;;
32639;SDS011;19049;52.524;11.468;2024-03-22T02:23:49;18.90;;;12.00;;
32639;SDS011;19049;52.524;11.468;2024-03-22T02:26:15;20.07;;;13.20;;
32639;SDS011;19049;52.524;11.468;2024-03-22T02:28:40;19.27;;;13.33;;
32639;SDS011;19049;52.524;11.468;2024-03-22T02:31:06;19.87;;;12.83;;
32639;SDS011;19049;52.524;11.468;2024-03-22T02:33:31;18.60;;;12.53;;
32639;SDS011;19049;52.524;11.468;2024-03-22T02:35:57;20.93;;;13.60;;
32639;SDS011;19049;52.524;11.468;2024-03-22T02:38:23;21.17;;;12.90;;
32639;SDS011;19049;52.524;11.468;2024-03-22T02:40:49;19.23;;;13.17;;
32639;SDS011;19049;52.524;11.468;2024-03-22T02:43:15;17.23;;;11.17;;
32639;SDS011;19049;52.524;11.468;2024-03-22T02:45:43;18.07;;;12.30;;
32639;SDS011;19049;52.524;11.468;2024-03-22T02:48:09;16.37;;;11.63;;
32639;SDS011;19049;52.524;11.468;2024-03-22T02:50:38;16.10;;;11.07;;
32639;SDS011;19049;52.524;11.468;2024-03-22T02:53:04;20.30;;;11.07;;
32639;SDS011;19049;52.524;11.468;2024-03-22T02:55:30;15.20;;;10.40;;
32639;SDS011;19049;52.524;11.468;2024-03-22T02:58:06;16.83;;;11.23;;
32639;SDS011;19049;52.524;11.468;2024-03-22T03:00:35;18.63;;;11.90;;
32639;SDS011;19049;52.524;11.468;2024-03-22T03:03:02;15.67;;;10.23;;
32639;SDS011;19049;52.524;11.468;2024-03-22T03:05:27;17.07;;;11.03;;
32639;SDS011;19049;52.524;11.468;2024-03-22T03:07:53;19.47;;;11.43;;
32639;SDS011;19049;52.524;11.468;2024-03-22T03:10:18;19.07;;;11.97;;
32639;SDS011;19049;52.524;11.468;2024-03-22T03:12:44;19.27;;;12.30;;
32639;SDS011;19049;52.524;11.468;2024-03-22T03:15:09;17.77;;;10.80;;
32639;SDS011;19049;52.524;11.468;2024-03-22T03:17:35;19.80;;;12.63;;
32639;SDS011;19049;52.524;11.468;2024-03-22T03:20:01;18.43;;;11.80;;
32639;SDS011;19049;52.524;11.468;2024-03-22T03:22:26;19.43;;;13.27;;
32639;SDS011;19049;52.524;11.468;2024-03-22T03:24:52;21.83;;;13.50;;
32639;SDS011;19049;52.524;11.468;2024-03-22T03:27:17;23.43;;;14.23;;
32639;SDS011;19049;52.524;11.468;2024-03-22T03:29:43;22.50;;;13.73;;
32639;SDS011;19049;52.524;11.468;2024-03-22T03:32:08;21.93;;;14.17;;
32639;SDS011;19049;52.524;11.468;2024-03-22T03:34:34;23.20;;;14.73;;
32639;SDS011;19049;52.524;11.468;2024-03-22T03:36:59;25.50;;;15.70;;
32639;SDS011;19049;52.524;11.468;2024-03-22T03:39:26;25.33;;;16.00;;
32639;SDS011;19049;52.524;11.468;2024-03-22T03:41:52;27.63;;;16.00;;
32639;SDS011;19049;52.524;11.468;2024-03-22T03:44:17;29.10;;;16.13;;
32639;SDS011;19049;52.524;11.468;2024-03-22T03:46:43;29.97;;;18.33;;
32639;SDS011;19049;52.524;11.468;2024-03-22T03:49:08;30.77;;;17.17;;
32639;SDS011;19049;52.524;11.468;2024-03-22T03:51:34;33.60;;;20.20;;
32639;SDS011;19049;52.524;11.468;2024-03-22T03:53:59;34.33;;;20.00;;
32639;SDS011;19049;52.524;11.468;2024-03-22T03:56:25;30.10;;;18.67;;
32639;SDS011;19049;52.524;11.468;2024-03-22T03:58:50;31.60;;;18.13;;
32639;SDS011;19049;52.524;11.468;2024-03-22T04:01:16;31.83;;;18.17;;
32639;SDS011;19049;52.524;11.468;2024-03-22T04:03:43;30.30;;;18.47;;
32639;SDS011;19049;52.524;11.468;2024-03-22T04:06:08;31.70;;;18.63;;
32639;SDS011;19049;52.524;11.468;2024-03-22T04:08:34;34.13;;;20.10;;
32639;SDS011;19049;52.524;11.468;2024-03-22T04:10:59;32.43;;;19.60;;
32639;SDS011;19049;52.524;11.468;2024-03-22T04:13:25;30.77;;;19.77;;
32639;SDS011;19049;52.524;11.468;2024-03-22T04:15:51;35.73;;;21.07;;
32639;SDS011;19049;52.524;11.468;2024-03-22T04:18:17;36.37;;;21.20;;
32639;SDS011;19049;52.524;11.468;2024-03-22T04:20:52;32.27;;;19.33;;
32639;SDS011;19049;52.524;11.468;2024-03-22T04:23:22;36.30;;;22.17;;
32639;SDS011;19049;52.524;11.468;2024-03-22T04:25:51;33.47;;;20.60;;
32639;SDS011;19049;52.524;11.468;2024-03-22T04:28:21;34.43;;;22.07;;
32639;SDS011;19049;52.524;11.468;2024-03-22T04:31:05;42.60;;;24.37;;
32639;SDS011;19049;52.524;11.468;2024-03-22T04:33:33;39.10;;;22.83;;
32639;SDS011;19049;52.524;11.468;2024-03-22T04:36:00;34.93;;;21.00;;
32639;SDS011;19049;52.524;11.468;2024-03-22T04:38:26;34.17;;;20.93;;
32639;SDS011;19049;52.524;11.468;2024-03-22T04:40:52;36.50;;;23.33;;
32639;SDS011;19049;52.524;11.468;2024-03-22T04:43:18;38.70;;;22.63;;
32639;SDS011;19049;52.524;11.468;2024-03-22T04:45:47;39.43;;;23.47;;
32639;SDS011;19049;52.524;11.468;2024-03-22T04:48:14;33.70;;;20.93;;
32639;SDS011;19049;52.524;11.468;2024-03-22T04:50:41;35.70;;;21.83;;
32639;SDS011;19049;52.524;11.468;2024-03-22T04:53:07;34.27;;;21.17;;
32639;SDS011;19049;52.524;11.468;2024-03-22T04:55:32;44.87;;;24.07;;
32639;SDS011;19049;52.524;11.468;2024-03-22T04:57:58;37.23;;;22.87;;
32639;SDS011;19049;52.524;11.468;2024-03-22T05:00:24;36.97;;;22.63;;
32639;SDS011;19049;52.524;11.468;2024-03-22T05:02:52;37.17;;;21.53;;
32639;SDS011;19049;52.524;11.468;2024-03-22T05:05:18;39.40;;;22.97;;
32639;SDS011;19049;52.524;11.468;2024-03-22T05:07:44;37.43;;;22.43;;
32639;SDS011;19049;52.524;11.468;2024-03-22T05:10:09;37.17;;;22.57;;
32639;SDS011;19049;52.524;11.468;2024-03-22T05:12:36;35.37;;;20.53;;
32639;SDS011;19049;52.524;11.468;2024-03-22T05:15:02;39.00;;;23.90;;
32639;SDS011;19049;52.524;11.468;2024-03-22T05:17:28;40.53;;;24.03;;
32639;SDS011;19049;52.524;11.468;2024-03-22T05:19:54;42.53;;;25.37;;
32639;SDS011;19049;52.524;11.468;2024-03-22T05:22:20;39.40;;;23.47;;
32639;SDS011;19049;52.524;11.468;2024-03-22T05:24:47;43.40;;;24.70;;
32639;SDS011;19049;52.524;11.468;2024-03-22T05:27:12;44.07;;;26.00;;
32639;SDS011;19049;52.524;11.468;2024-03-22T05:29:38;44.57;;;26.13;;
32639;SDS011;19049;52.524;11.468;2024-03-22T05:32:04;37.90;;;24.13;;
32639;SDS011;19049;52.524;11.468;2024-03-22T05:34:30;43.50;;;25.27;;
32639;SDS011;19049;52.524;11.468;2024-03-22T05:36:56;37.47;;;22.53;;
32639;SDS011;19049;52.524;11.468;2024-03-22T05:39:21;41.70;;;25.10;;
32639;SDS011;19049;52.524;11.468;2024-03-22T05:41:47;42.13;;;25.93;;
32639;SDS011;19049;52.524;11.468;2024-03-22T05:44:12;42.63;;;26.20;;
32639;SDS011;19049;52.524;11.468;2024-03-22T05:46:38;39.33;;;24.53;;
32639;SDS011;19049;52.524;11.468;2024-03-22T05:49:03;42.23;;;24.47;;
32639;SDS011;19049;52.524;11.468;2024-03-22T05:51:29;41.27;;;23.17;;
32639;SDS011;19049;52.524;11.468;2024-03-22T05:53:57;35.13;;;22.67;;
32639;SDS011;19049;52.524;11.468;2024-03-22T05:56:23;42.07;;;25.13;;
32639;SDS011;19049;52.524;11.468;2024-03-22T05:58:48;40.03;;;24.53;;
32639;SDS011;19049;52.524;11.468;2024-03-22T06:01:14;43.77;;;25.73;;
32639;SDS011;19049;52.524;11.468;2024-03-22T06:03:39;39.40;;;24.77;;
32639;SDS011;19049;52.524;11.468;2024-03-22T06:06:05;42.13;;;25.17;;
32639;SDS011;19049;52.524;11.468;2024-03-22T06:08:31;40.47;;;24.40;;
32639;SDS011;19049;52.524;11.468;2024-03-22T06:10:59;42.50;;;25.43;;
32639;SDS011;19049;52.524;11.468;2024-03-22T06:13:25;39.87;;;24.03;;
32639;SDS011;19049;52.524;11.468;2024-03-22T06:15:50;34.77;;;21.93;;
32639;SDS011;19049;52.524;11.468;2024-03-22T06:18:16;34.93;;;21.70;;
32639;SDS011;19049;52.524;11.468;2024-03-22T06:20:42;38.60;;;22.83;;
32639;SDS011;19049;52.524;11.468;2024-03-22T06:23:08;38.80;;;23.87;;
32639;SDS011;19049;52.524;11.468;2024-03-22T06:25:34;38.70;;;22.83;;
32639;SDS011;19049;52.524;11.468;2024-03-22T06:27:59;39.27;;;22.27;;
32639;SDS011;19049;52.524;11.468;2024-03-22T06:30:25;37.47;;;23.33;;
32639;SDS011;19049;52.524;11.468;2024-03-22T06:32:51;39.20;;;23.07;;
32639;SDS011;19049;52.524;11.468;2024-03-22T06:35:17;40.67;;;23.30;;
32639;SDS011;19049;52.524;11.468;2024-03-22T06:37:42;36.33;;;21.87;;
32639;SDS011;19049;52.524;11.468;2024-03-22T06:40:08;36.67;;;22.17;;
32639;SDS011;19049;52.524;11.468;2024-03-22T06:42:34;38.53;;;23.33;;
32639;SDS011;19049;52.524;11.468;2024-03-22T06:45:00;37.73;;;23.37;;
32639;SDS011;19049;52.524;11.468;2024-03-22T06:47:25;34.10;;;21.60;;
32639;SDS011;19049;52.524;11.468;2024-03-22T06:49:51;32.93;;;20.73;;
32639;SDS011;19049;52.524;11.468;2024-03-22T06:52:16;34.60;;;20.80;;
32639;SDS011;19049;52.524;11.468;2024-03-22T06:54:43;37.70;;;24.43;;
32639;SDS011;19049;52.524;11.468;2024-03-22T06:57:08;35.17;;;22.37;;
32639;SDS011;19049;52.524;11.468;2024-03-22T06:59:34;34.57;;;22.03;;
32639;SDS011;19049;52.524;11.468;2024-03-22T07:02:00;37.30;;;23.77;;
32639;SDS011;19049;52.524;11.468;2024-03-22T07:04:25;33.23;;;21.37;;
32639;SDS011;19049;52.524;11.468;2024-03-22T07:06:51;33.63;;;20.37;;
32639;SDS011;19049;52.524;11.468;2024-03-22T07:09:16;35.93;;;21.43;;
32639;SDS011;19049;52.524;11.468;2024-03-22T07:11:42;37.67;;;21.87;;
32639;SDS011;19049;52.524;11.468;2024-03-22T07:14:07;39.63;;;22.00;;
32639;SDS011;19049;52.524;11.468;2024-03-22T07:16:33;35.13;;;21.40;;
32639;SDS011;19049;52.524;11.468;2024-03-22T07:18:58;38.83;;;23.50;;
32639;SDS011;19049;52.524;11.468;2024-03-22T07:21:24;33.47;;;20.63;;
32639;SDS011;19049;52.524;11.468;2024-03-22T07:23:50;33.87;;;22.00;;
32639;SDS011;19049;52.524;11.468;2024-03-22T07:26:15;34.57;;;21.97;;
32639;SDS011;19049;52.524;11.468;2024-03-22T07:28:41;33.40;;;21.13;;
32639;SDS011;19049;52.524;11.468;2024-03-22T07:31:06;33.90;;;21.80;;
32639;SDS011;19049;52.524;11.468;2024-03-22T07:33:32;34.77;;;20.67;;
32639;SDS011;19049;52.524;11.468;2024-03-22T07:36:01;37.53;;;22.13;;
32639;SDS011;19049;52.524;11.468;2024-03-22T07:38:27;37.17;;;22.97;;
32639;SDS011;19049;52.524;11.468;2024-03-22T07:40:53;37.13;;;22.13;;
32639;SDS011;19049;52.524;11.468;2024-03-22T07:43:19;34.00;;;21.13;;
32639;SDS011;19049;52.524;11.468;2024-03-22T07:45:44;31.73;;;20.03;;
32639;SDS011;19049;52.524;11.468;2024-03-22T07:48:10;34.17;;;21.20;;
32639;SDS011;19049;52.524;11.468;2024-03-22T07:50:36;35.23;;;20.83;;
32639;SDS011;19049;52.524;11.468;2024-03-22T07:53:01;35.93;;;21.60;;
32639;SDS011;19049;52.524;11.468;2024-03-22T07:55:27;39.97;;;23.50;;
32639;SDS011;19049;52.524;11.468;2024-03-22T07:57:53;37.97;;;24.23;;
32639;SDS011;19049;52.524;11.468;2024-03-22T08:00:18;33.70;;;22.60;;
32639;SDS011;19049;52.524;11.468;2024-03-22T08:02:44;37.93;;;22.17;;
32639;SDS011;19049;52.524;11.468;2024-03-22T08:05:10;40.47;;;23.47;;
32639;SDS011;19049;52.524;11.468;2024-03-22T08:07:35;39.17;;;23.07;;
32639;SDS011;19049;52.524;11.468;2024-03-22T08:10:01;36.57;;;22.20;;
32639;SDS011;19049;52.524;11.468;2024-03-22T08:12:27;37.20;;;22.63;;
32639;SDS011;19049;52.524;11.468;2024-03-22T08:14:53;34.03;;;20.90;;
32639;SDS011;19049;52.524;11.468;2024-03-22T08:17:19;32.93;;;20.93;;
32639;SDS011;19049;52.524;11.468;2024-03-22T08:19:44;39.00;;;23.57;;
32639;SDS011;19049;52.524;11.468;2024-03-22T08:22:10;39.53;;;23.53;;
32639;SDS011;19049;52.524;11.468;2024-03-22T08:24:36;37.57;;;23.50;;
32639;SDS011;19049;52.524;11.468;2024-03-22T08:27:02;36.37;;;23.13;;
32639;SDS011;19049;52.524;11.468;2024-03-22T08:29:28;35.20;;;22.83;;
32639;SDS011;19049;52.524;11.468;2024-03-22T08:31:54;35.73;;;22.60;;
32639;SDS011;19049;52.524;11.468;2024-03-22T08:34:20;37.57;;;24.07;;
32639;SDS011;19049;52.524;11.468;2024-03-22T08:36:46;37.70;;;22.20;;
32639;SDS011;19049;52.524;11.468;2024-03-22T08:39:12;33.77;;;21.67;;
32639;SDS011;19049;52.524;11.468;2024-03-22T08:41:37;34.83;;;22.60;;
32639;SDS011;19049;52.524;11.468;2024-03-22T08:44:03;33.13;;;21.87;;
32639;SDS011;19049;52.524;11.468;2024-03-22T08:46:29;33.67;;;21.67;;
32639;SDS011;19049;52.524;11.468;2024-03-22T08:48:56;34.40;;;21.87;;
32639;SDS011;19049;52.524;11.468;2024-03-22T08:51:22;32.87;;;20.37;;
32639;SDS011;19049;52.524;11.468;2024-03-22T08:53:47;30.63;;;19.30;;
32639;SDS011;19049;52.524;11.468;2024-03-22T08:56:13;30.57;;;20.37;;
32639;SDS011;19049;52.524;11.468;2024-03-22T08:58:39;29.27;;;18.70;;
32639;SDS011;19049;52.524;11.468;2024-03-22T09:01:05;32.47;;;18.73;;
32639;SDS011;19049;52.524;11.468;2024-03-22T09:03:31;28.93;;;19.07;;
32639;SDS011;19049;52.524;11.468;2024-03-22T09:05:56;28.67;;;19.27;;
32639;SDS011;19049;52.524;11.468;2024-03-22T09:08:22;28.27;;;17.53;;
32639;SDS011;19049;52.524;11.468;2024-03-22T09:10:47;28.73;;;17.77;;
32639;SDS011;19049;52.524;11.468;2024-03-22T09:13:13;28.63;;;18.27;;
32639;SDS011;19049;52.524;11.468;2024-03-22T09:15:39;28.87;;;19.10;;
32639;SDS011;19049;52.524;11.468;2024-03-22T09:18:05;26.10;;;17.53;;
32639;SDS011;19049;52.524;11.468;2024-03-22T09:20:31;27.70;;;17.83;;
32639;SDS011;19049;52.524;11.468;2024-03-22T09:22:57;27.80;;;17.60;;
32639;SDS011;19049;52.524;11.468;2024-03-22T09:25:25;27.47;;;16.70;;
32639;SDS011;19049;52.524;11.468;2024-03-22T09:27:52;24.33;;;16.50;;
32639;SDS011;19049;52.524;11.468;2024-03-22T09:30:17;27.07;;;17.83;;
32639;SDS011;19049;52.524;11.468;2024-03-22T09:32:43;27.57;;;18.03;;
32639;SDS011;19049;52.524;11.468;2024-03-22T09:35:09;25.17;;;16.37;;
32639;SDS011;19049;52.524;11.468;2024-03-22T09:37:35;28.00;;;17.47;;
32639;SDS011;19049;52.524;11.468;2024-03-22T09:40:01;26.50;;;15.77;;
32639;SDS011;19049;52.524;11.468;2024-03-22T09:42:32;21.77;;;14.77;;
32639;SDS011;19049;52.524;11.468;2024-03-22T09:44:58;25.50;;;16.17;;
32639;SDS011;19049;52.524;11.468;2024-03-22T09:47:24;27.23;;;18.37;;
32639;SDS011;19049;52.524;11.468;2024-03-22T09:49:51;27.80;;;17.23;;
32639;SDS011;19049;52.524;11.468;2024-03-22T09:52:18;24.60;;;15.50;;
32639;SDS011;19049;52.524;11.468;2024-03-22T09:54:45;26.37;;;17.07;;
32639;SDS011;19049;52.524;11.468;2024-03-22T09:57:14;29.10;;;16.07;;
32639;SDS011;19049;52.524;11.468;2024-03-22T09:59:41;26.43;;;15.97;;
32639;SDS011;19049;52.524;11.468;2024-03-22T10:02:08;26.53;;;15.30;;
32639;SDS011;19049;52.524;11.468;2024-03-22T10:04:36;26.83;;;16.13;;
32639;SDS011;19049;52.524;11.468;2024-03-22T10:07:04;23.53;;;16.10;;
32639;SDS011;19049;52.524;11.468;2024-03-22T10:09:30;23.43;;;15.30;;
32639;SDS011;19049;52.524;11.468;2024-03-22T10:11:57;22.13;;;15.00;;
32639;SDS011;19049;52.524;11.468;2024-03-22T10:14:23;22.57;;;15.83;;
32639;SDS011;19049;52.524;11.468;2024-03-22T10:16:51;23.83;;;14.73;;
32639;SDS011;19049;52.524;11.468;2024-03-22T10:19:21;21.57;;;14.43;;
32639;SDS011;19049;52.524;11.468;2024-03-22T10:21:47;25.07;;;15.53;;
32639;SDS011;19049;52.524;11.468;2024-03-22T10:24:24;24.83;;;15.83;;
32639;SDS011;19049;52.524;11.468;2024-03-22T10:26:49;26.27;;;16.47;;
32639;SDS011;19049;52.524;11.468;2024-03-22T10:29:15;26.13;;;15.97;;
32639;SDS011;19049;52.524;11.468;2024-03-22T10:31:41;25.10;;;15.87;;
32639;SDS011;19049;52.524;11.468;2024-03-22T10:34:07;25.67;;;16.07;;
32639;SDS011;19049;52.524;11.468;2024-03-22T10:36:36;24.33;;;15.63;;
32639;SDS011;19049;52.524;11.468;2024-03-22T10:39:01;28.20;;;14.90;;
32639;SDS011;19049;52.524;11.468;2024-03-22T10:41:28;22.77;;;14.83;;
32639;SDS011;19049;52.524;11.468;2024-03-22T10:43:54;24.90;;;15.67;;
32639;SDS011;19049;52.524;11.468;2024-03-22T10:46:20;26.73;;;16.70;;
32639;SDS011;19049;52.524;11.468;2024-03-22T10:48:46;26.33;;;15.13;;
32639;SDS011;19049;52.524;11.468;2024-03-22T10:51:12;24.53;;;15.50;;
32639;SDS011;19049;52.524;11.468;2024-03-22T10:53:40;25.13;;;15.50;;
32639;SDS011;19049;52.524;11.468;2024-03-22T10:56:07;24.93;;;15.73;;
32639;SDS011;19049;52.524;11.468;2024-03-22T10:58:34;27.50;;;14.70;;
32639;SDS011;19049;52.524;11.468;2024-03-22T11:01:04;27.03;;;16.30;;
32639;SDS011;19049;52.524;11.468;2024-03-22T11:03:30;25.47;;;16.03;;
32639;SDS011;19049;52.524;11.468;2024-03-22T11:05:58;23.00;;;14.20;;
32639;SDS011;19049;52.524;11.468;2024-03-22T11:10:50;29.30;;;16.43;;
32639;SDS011;19049;52.524;11.468;2024-03-22T11:13:16;26.83;;;15.60;;
32639;SDS011;19049;52.524;11.468;2024-03-22T11:15:42;26.53;;;15.90;;
32639;SDS011;19049;52.524;11.468;2024-03-22T11:18:07;26.23;;;15.93;;
32639;SDS011;19049;52.524;11.468;2024-03-22T11:20:35;23.73;;;15.50;;
32639;SDS011;19049;52.524;11.468;2024-03-22T11:23:03;22.77;;;14.50;;
32639;SDS011;19049;52.524;11.468;2024-03-22T11:25:31;21.90;;;14.37;;
32639;SDS011;19049;52.524;11.468;2024-03-22T11:27:57;24.47;;;14.80;;
32639;SDS011;19049;52.524;11.468;2024-03-22T11:30:25;25.10;;;15.37;;
32639;SDS011;19049;52.524;11.468;2024-03-22T11:32:52;24.97;;;14.83;;
32639;SDS011;19049;52.524;11.468;2024-03-22T11:35:17;26.00;;;15.33;;
32639;SDS011;19049;52.524;11.468;2024-03-22T11:37:43;25.03;;;15.13;;
32639;SDS011;19049;52.524;11.468;2024-03-22T11:40:08;25.43;;;15.23;;
32639;SDS011;19049;52.524;11.468;2024-03-22T11:42:36;24.60;;;14.17;;
32639;SDS011;19049;52.524;11.468;2024-03-22T11:45:03;25.47;;;15.33;;
32639;SDS011;19049;52.524;11.468;2024-03-22T11:47:29;26.63;;;16.27;;
32639;SDS011;19049;52.524;11.468;2024-03-22T11:49:55;28.17;;;16.73;;
32639;SDS011;19049;52.524;11.468;2024-03-22T11:52:24;26.60;;;16.57;;
32639;SDS011;19049;52.524;11.468;2024-03-22T11:54:51;26.70;;;16.13;;
32639;SDS011;19049;52.524;11.468;2024-03-22T11:57:17;28.97;;;17.27;;
32639;SDS011;19049;52.524;11.468;2024-03-22T11:59:43;23.43;;;14.47;;
32639;SDS011;19049;52.524;11.468;2024-03-22T12:02:09;26.17;;;16.13;;
32639;SDS011;19049;52.524;11.468;2024-03-22T12:04:35;27.07;;;16.07;;
32639;SDS011;19049;52.524;11.468;2024-03-22T12:07:01;28.63;;;16.83;;
32639;SDS011;19049;52.524;11.468;2024-03-22T12:09:26;29.03;;;17.90;;
32639;SDS011;19049;52.524;11.468;2024-03-22T12:11:52;27.73;;;17.00;;
32639;SDS011;19049;52.524;11.468;2024-03-22T12:14:20;23.63;;;15.23;;
32639;SDS011;19049;52.524;11.468;2024-03-22T12:16:46;25.57;;;16.50;;
32639;SDS011;19049;52.524;11.468;2024-03-22T12:19:11;21.23;;;14.50;;
32639;SDS011;19049;52.524;11.468;2024-03-22T12:21:37;24.67;;;16.60;;
32639;SDS011;19049;52.524;11.468;2024-03-22T12:24:02;24.60;;;16.03;;
32639;SDS011;19049;52.524;11.468;2024-03-22T12:26:28;24.93;;;15.73;;
32639;SDS011;19049;52.524;11.468;2024-03-22T12:28:54;25.40;;;15.60;;
32639;SDS011;19049;52.524;11.468;2024-03-22T12:31:22;26.10;;;16.57;;
32639;SDS011;19049;52.524;11.468;2024-03-22T12:33:48;27.63;;;17.37;;
32639;SDS011;19049;52.524;11.468;2024-03-22T12:36:13;21.37;;;14.67;;
32639;SDS011;19049;52.524;11.468;2024-03-22T12:38:39;26.93;;;17.03;;
32639;SDS011;19049;52.524;11.468;2024-03-22T12:41:04;25.60;;;17.20;;
32639;SDS011;19049;52.524;11.468;2024-03-22T12:43:30;27.37;;;17.10;;
32639;SDS011;19049;52.524;11.468;2024-03-22T12:45:56;23.17;;;16.47;;
32639;SDS011;19049;52.524;11.468;2024-03-22T12:48:22;24.27;;;15.60;;
32639;SDS011;19049;52.524;11.468;2024-03-22T12:50:47;23.63;;;14.30;;
32639;SDS011;19049;52.524;11.468;2024-03-22T12:53:13;18.53;;;14.10;;
32639;SDS011;19049;52.524;11.468;2024-03-22T12:55:38;20.40;;;13.73;;
32639;SDS011;19049;52.524;11.468;2024-03-22T12:58:04;19.03;;;12.80;;
32639;SDS011;19049;52.524;11.468;2024-03-22T13:00:30;18.10;;;13.37;;
32639;SDS011;19049;52.524;11.468;2024-03-22T13:02:55;17.67;;;12.77;;
32639;SDS011;19049;52.524;11.468;2024-03-22T13:05:21;19.50;;;13.03;;
32639;SDS011;19049;52.524;11.468;2024-03-22T13:07:46;15.60;;;11.43;;
32639;SDS011;19049;52.524;11.468;2024-03-22T13:10:12;14.73;;;11.00;;
32639;SDS011;19049;52.524;11.468;2024-03-22T13:12:38;16.17;;;11.97;;
32639;SDS011;19049;52.524;11.468;2024-03-22T13:15:03;14.63;;;9.97;;
32639;SDS011;19049;52.524;11.468;2024-03-22T13:17:29;16.53;;;11.30;;
32639;SDS011;19049;52.524;11.468;2024-03-22T13:19:55;16.50;;;11.57;;
32639;SDS011;19049;52.524;11.468;2024-03-22T13:22:20;13.97;;;10.77;;
32639;SDS011;19049;52.524;11.468;2024-03-22T13:24:46;16.03;;;11.30;;
32639;SDS011;19049;52.524;11.468;2024-03-22T13:27:13;16.40;;;12.20;;
32639;SDS011;19049;52.524;11.468;2024-03-22T13:29:39;19.03;;;12.67;;
32639;SDS011;19049;52.524;11.468;2024-03-22T13:32:05;25.00;;;17.43;;
32639;SDS011;19049;52.524;11.468;2024-03-22T13:34:32;20.93;;;14.47;;
32639;SDS011;19049;52.524;11.468;2024-03-22T13:37:01;17.27;;;12.50;;
32639;SDS011;19049;52.524;11.468;2024-03-22T13:39:27;16.20;;;12.10;;
32639;SDS011;19049;52.524;11.468;2024-03-22T13:41:54;17.93;;;11.37;;
32639;SDS011;19049;52.524;11.468;2024-03-22T13:44:23;14.53;;;11.57;;
32639;SDS011;19049;52.524;11.468;2024-03-22T13:46:50;13.97;;;11.13;;
32639;SDS011;19049;52.524;11.468;2024-03-22T13:49:16;16.83;;;13.23;;
32639;SDS011;19049;52.524;11.468;2024-03-22T13:51:46;16.83;;;13.07;;
32639;SDS011;19049;52.524;11.468;2024-03-22T13:54:13;18.53;;;13.53;;
32639;SDS011;19049;52.524;11.468;2024-03-22T13:56:38;19.73;;;13.87;;
32639;SDS011;19049;52.524;11.468;2024-03-22T13:59:05;19.47;;;14.13;;
32639;SDS011;19049;52.524;11.468;2024-03-22T14:01:31;18.43;;;14.47;;
32639;SDS011;19049;52.524;11.468;2024-03-22T14:03:57;21.20;;;13.80;;
32639;SDS011;19049;52.524;11.468;2024-03-22T14:06:23;19.27;;;13.87;;